createdAt,value
2022-11-20T00:01:54.660Z,100554.25
2022-11-20T00:04:25.381Z,100558.59
2022-11-20T00:06:54.781Z,100556.34
2022-11-20T00:09:24.139Z,100563.41
2022-11-20T00:11:53.430Z,100566.16
2022-11-20T00:14:22.717Z,100556.75
2022-11-20T00:16:52.073Z,100563.16
2022-11-20T00:19:21.690Z,100558.31
2022-11-20T00:21:54.925Z,100555.13
2022-11-20T00:24:24.187Z,100554.97
2022-11-20T00:26:53.607Z,100550.94
2022-11-20T00:29:23.246Z,100549.16
2022-11-20T00:31:52.572Z,100536.03
2022-11-20T00:34:22.027Z,100536.28
2022-11-20T00:36:52.675Z,100544.34
2022-11-20T00:39:22.208Z,100538.19
2022-11-20T00:41:51.797Z,100540.09
2022-11-20T00:44:21.076Z,100535.53
2022-11-20T00:46:50.346Z,100534.56
2022-11-20T00:49:19.902Z,100531.88
2022-11-20T00:51:49.387Z,100532.41
2022-11-20T00:54:20.197Z,100533.47
2022-11-20T00:56:49.530Z,100533.84
2022-11-20T00:59:18.961Z,100543.00
2022-11-20T01:01:48.517Z,100535.88
2022-11-20T01:04:17.816Z,100537.22
2022-11-20T01:06:47.474Z,100539.97
2022-11-20T01:09:17.167Z,100536.47
2022-11-20T01:11:47.856Z,100531.19
2022-11-20T01:14:19.565Z,100531.84
2022-11-20T01:16:50.928Z,100537.97
2022-11-20T01:19:22.825Z,100522.53
2022-11-20T01:21:54.552Z,100525.66
2022-11-20T01:24:25.282Z,100523.31
2022-11-20T01:26:56.157Z,100530.84
2022-11-20T01:29:26.807Z,100524.25
2022-11-20T01:31:56.266Z,100536.53
2022-11-20T01:34:26.216Z,100536.44
2022-11-20T01:36:56.182Z,100517.16
2022-11-20T01:39:28.108Z,100514.88
2022-11-20T01:42:16.363Z,100519.66
2022-11-20T01:44:53.505Z,100518.78
2022-11-20T01:47:32.017Z,100511.66
2022-11-20T01:50:07.847Z,100514.31
2022-11-20T01:52:42.211Z,100517.94
2022-11-20T01:55:15.429Z,100519.84
2022-11-20T01:57:46.870Z,100518.34
2022-11-20T02:00:19.233Z,100521.25
2022-11-20T02:02:52.854Z,100507.69
2022-11-20T02:05:25.744Z,100510.81
2022-11-20T02:07:56.834Z,100513.22
2022-11-20T02:10:26.557Z,100504.38
2022-11-20T02:13:15.023Z,100509.06
2022-11-20T02:15:45.215Z,100505.50
2022-11-20T02:18:18.451Z,100502.84
2022-11-20T02:20:50.643Z,100497.53
2022-11-20T02:23:29.768Z,100492.22
2022-11-20T02:26:03.364Z,100492.44
2022-11-20T02:28:32.697Z,100500.69
2022-11-20T02:31:03.127Z,100500.69
2022-11-20T02:33:32.405Z,100486.84
2022-11-20T02:36:01.722Z,100487.13
2022-11-20T02:38:30.918Z,100495.03
2022-11-20T02:41:01.668Z,100487.25
2022-11-20T02:43:30.975Z,100472.22
2022-11-20T02:46:00.306Z,100482.78
2022-11-20T02:48:33.673Z,100485.91
2022-11-20T02:51:03.361Z,100481.75
2022-11-20T02:53:32.667Z,100476.94
2022-11-20T02:56:03.412Z,100463.53
2022-11-20T02:58:32.708Z,100471.31
2022-11-20T03:01:02.629Z,100466.75
2022-11-20T03:06:24.568Z,100464.16
2022-11-20T03:08:54.065Z,100466.09
2022-11-20T03:11:24.837Z,100462.97
2022-11-20T03:13:54.214Z,100469.03
2022-11-20T03:16:24.956Z,100468.66
2022-11-20T03:18:55.085Z,100458.97
2022-11-20T03:21:24.368Z,100456.69
2022-11-20T03:23:55.256Z,100458.78
2022-11-20T03:26:28.303Z,100453.88
2022-11-20T03:28:58.974Z,100455.78
2022-11-20T03:31:30.457Z,100440.22
2022-11-20T03:34:00.740Z,100448.75
2022-11-20T03:36:30.559Z,100451.22
2022-11-20T03:38:59.967Z,100441.31
2022-11-20T03:41:32.879Z,100448.75
2022-11-20T03:44:03.941Z,100443.44
2022-11-20T03:46:33.609Z,100446.25
2022-11-20T03:49:03.037Z,100447.75
2022-11-20T03:51:33.757Z,100437.44
2022-11-20T03:54:07.818Z,100419.22
2022-11-20T03:56:40.767Z,100431.81
2022-11-20T03:59:12.699Z,100437.88
2022-11-20T04:01:45.548Z,100428.59
2022-11-20T04:04:18.463Z,100441.50
2022-11-20T04:06:48.072Z,100438.09
2022-11-20T04:09:17.819Z,100442.63
2022-11-20T04:11:48.589Z,100440.38
2022-11-20T04:14:18.673Z,100441.25
2022-11-20T04:16:47.900Z,100444.56
2022-11-20T04:19:19.120Z,100443.28
2022-11-20T04:21:48.865Z,100445.50
2022-11-20T04:24:18.126Z,100456.53
2022-11-20T04:26:48.867Z,100452.34
2022-11-20T04:29:18.276Z,100448.56
2022-11-20T04:31:47.688Z,100441.06
2022-11-20T04:34:17.027Z,100440.22
2022-11-20T04:36:46.306Z,100434.03
2022-11-20T04:39:18.122Z,100444.28
2022-11-20T04:41:48.828Z,100442.56
2022-11-20T04:44:18.081Z,100441.91
2022-11-20T04:46:47.436Z,100442.97
2022-11-20T04:49:16.923Z,100433.19
2022-11-20T04:51:46.170Z,100439.63
2022-11-20T04:54:15.464Z,100434.44
2022-11-20T04:56:44.941Z,100434.25
2022-11-20T04:59:15.633Z,100428.72
2022-11-20T05:01:45.209Z,100430.81
2022-11-20T05:04:14.614Z,100432.06
2022-11-20T05:06:43.921Z,100428.06
2022-11-20T05:09:13.290Z,100443.94
2022-11-20T05:11:42.623Z,100442.13
2022-11-20T05:14:11.918Z,100433.97
2022-11-20T05:16:42.949Z,100435.78
2022-11-20T05:19:12.216Z,100440.50
2022-11-20T05:21:41.525Z,100440.44
2022-11-20T05:24:10.982Z,100443.94
2022-11-20T05:26:40.502Z,100443.44
2022-11-20T05:29:12.054Z,100440.41
2022-11-20T05:31:43.897Z,100438.91
2022-11-20T05:34:13.176Z,100430.16
2022-11-20T05:36:42.443Z,100446.75
2022-11-20T05:39:11.728Z,100439.16
2022-11-20T05:41:41.118Z,100443.91
2022-11-20T05:44:12.828Z,100438.72
2022-11-20T05:46:43.516Z,100436.72
2022-11-20T05:49:12.804Z,100423.09
2022-11-20T05:51:42.227Z,100420.31
2022-11-20T05:54:11.527Z,100406.91
2022-11-20T05:56:40.927Z,100405.22
2022-11-20T05:59:10.338Z,100412.44
2022-11-20T06:01:39.612Z,100417.16
2022-11-20T06:04:10.465Z,100402.47
2022-11-20T06:06:39.654Z,100394.88
2022-11-20T06:09:09.074Z,100399.69
2022-11-20T06:11:38.357Z,100398.31
2022-11-20T06:14:07.809Z,100400.13
2022-11-20T06:16:37.033Z,100395.66
2022-11-20T06:19:06.343Z,100416.91
2022-11-20T06:21:36.976Z,100414.31
2022-11-20T06:24:06.675Z,100416.56
2022-11-20T06:26:35.953Z,100420.53
2022-11-20T06:29:05.295Z,100418.84
2022-11-20T06:31:38.719Z,100411.53
2022-11-20T06:34:08.758Z,100402.25
2022-11-20T06:36:39.437Z,100404.59
2022-11-20T06:39:08.726Z,100398.00
2022-11-20T06:41:38.053Z,100399.38
2022-11-20T06:44:07.643Z,100403.00
2022-11-20T06:46:37.004Z,100407.69
2022-11-20T06:49:07.027Z,100404.06
2022-11-20T06:51:36.354Z,100408.66
2022-11-20T06:54:07.408Z,100398.66
2022-11-20T06:56:36.701Z,100403.34
2022-11-20T06:59:07.616Z,100408.31
2022-11-20T07:01:37.297Z,100406.28
2022-11-20T07:04:06.907Z,100401.38
2022-11-20T07:06:36.314Z,100410.44
2022-11-20T07:09:22.041Z,100418.69
2022-11-20T07:11:51.536Z,100417.47
2022-11-20T07:14:20.875Z,100417.91
2022-11-20T07:16:50.134Z,100427.75
2022-11-20T07:19:19.499Z,100426.22
2022-11-20T07:21:48.937Z,100423.56
2022-11-20T07:24:19.677Z,100422.94
2022-11-20T07:26:50.249Z,100430.84
2022-11-20T07:29:19.743Z,100420.06
2022-11-20T07:31:49.424Z,100423.97
2022-11-20T07:34:18.765Z,100414.03
2022-11-20T07:36:48.085Z,100410.38
2022-11-20T07:39:17.369Z,100419.69
2022-11-20T07:41:47.955Z,100420.28
2022-11-20T07:44:17.288Z,100423.00
2022-11-20T07:46:46.589Z,100416.78
2022-11-20T07:49:15.874Z,100409.94
2022-11-20T07:51:47.900Z,100423.88
2022-11-20T07:54:19.661Z,100426.78
2022-11-20T07:56:50.955Z,100424.13
2022-11-20T07:59:20.543Z,100421.31
2022-11-20T08:01:49.997Z,100424.22
2022-11-20T08:04:19.363Z,100425.16
2022-11-20T08:06:48.670Z,100416.66
2022-11-20T08:09:18.088Z,100414.69
2022-11-20T08:12:04.696Z,100418.09
2022-11-20T08:14:35.443Z,100431.53
2022-11-20T08:17:04.718Z,100414.13
2022-11-20T08:19:34.182Z,100408.13
2022-11-20T08:22:03.454Z,100400.03
2022-11-20T08:24:32.698Z,100399.44
2022-11-20T08:27:02.479Z,100415.19
2022-11-20T08:29:31.804Z,100404.81
2022-11-20T08:32:02.557Z,100395.59
2022-11-20T08:34:31.819Z,100398.75
2022-11-20T08:37:01.217Z,100396.97
2022-11-20T08:39:30.648Z,100403.03
2022-11-20T08:41:59.966Z,100409.13
2022-11-20T08:44:29.275Z,100406.47
2022-11-20T08:46:58.678Z,100404.50
2022-11-20T08:49:29.359Z,100396.47
2022-11-20T08:51:59.524Z,100401.84
2022-11-20T08:54:28.784Z,100393.09
2022-11-20T08:56:58.060Z,100394.50
2022-11-20T08:59:50.719Z,100401.31
2022-11-20T09:02:16.837Z,100416.00
2022-11-20T09:04:47.567Z,100415.44
2022-11-20T09:07:16.831Z,100416.63
2022-11-20T09:09:46.372Z,100411.53
2022-11-20T09:12:16.034Z,100399.28
2022-11-20T09:14:45.421Z,100409.63
2022-11-20T09:17:16.098Z,100403.16
2022-11-20T09:19:45.859Z,100414.72
2022-11-20T09:22:17.000Z,100402.34
2022-11-20T09:24:46.264Z,100403.06
2022-11-20T09:27:15.648Z,100390.75
2022-11-20T09:29:44.892Z,100397.22
2022-11-20T09:32:14.189Z,100401.94
2022-11-20T09:34:43.447Z,100400.25
2022-11-20T09:37:12.727Z,100394.06
2022-11-20T09:39:43.540Z,100395.25
2022-11-20T09:42:29.568Z,100396.47
2022-11-20T09:45:19.729Z,100389.88
2022-11-20T09:48:07.017Z,100384.53
2022-11-20T09:50:43.340Z,100385.53
2022-11-20T09:53:26.697Z,100370.88
2022-11-20T09:55:57.957Z,100355.19
2022-11-20T09:58:33.473Z,100350.44
2022-11-20T10:01:12.111Z,100352.13
2022-11-20T10:03:52.783Z,100353.38
2022-11-20T10:06:27.267Z,100331.28
2022-11-20T10:09:07.189Z,100337.56
2022-11-20T10:11:50.750Z,100353.63
2022-11-20T10:14:29.111Z,100359.13
2022-11-20T10:17:10.846Z,100361.75
2022-11-20T10:19:55.443Z,100362.06
2022-11-20T10:22:39.837Z,100349.22
2022-11-20T10:25:17.154Z,100341.31
2022-11-20T10:28:09.387Z,100339.41
2022-11-20T10:30:42.717Z,100332.53
2022-11-20T10:33:18.846Z,100305.56
2022-11-20T10:35:54.666Z,100319.66
2022-11-20T10:38:28.643Z,100291.69
2022-11-20T10:41:25.539Z,100308.13
2022-11-20T10:44:04.156Z,100315.63
2022-11-20T10:46:41.024Z,100325.25
2022-11-20T10:49:17.046Z,100321.44
2022-11-20T10:52:01.639Z,100315.06
2022-11-20T10:54:39.182Z,100316.34
2022-11-20T10:57:18.043Z,100300.50
2022-11-20T11:00:09.072Z,100302.06
2022-11-20T11:02:44.048Z,100295.53
2022-11-20T11:05:23.799Z,100288.75
2022-11-20T11:07:56.457Z,100286.44
2022-11-20T11:10:35.533Z,100275.63
2022-11-20T11:13:05.247Z,100284.56
2022-11-20T11:15:42.216Z,100285.75
2022-11-20T11:18:12.774Z,100289.44
2022-11-20T11:20:53.225Z,100272.63
2022-11-20T11:23:34.215Z,100282.31
2022-11-20T11:26:05.807Z,100268.97
2022-11-20T11:28:35.517Z,100268.22
2022-11-20T11:31:06.201Z,100252.41
2022-11-20T11:33:36.027Z,100258.03
2022-11-20T11:36:18.897Z,100261.03
2022-11-20T11:38:53.253Z,100267.13
2022-11-20T11:41:26.216Z,100253.09
2022-11-20T11:44:15.817Z,100259.34
2022-11-20T11:46:56.060Z,100252.28
2022-11-20T11:49:25.880Z,100250.13
2022-11-20T11:52:07.814Z,100244.28
2022-11-20T11:54:44.198Z,100244.44
2022-11-20T11:57:20.389Z,100247.28
2022-11-20T12:00:05.310Z,100243.50
2022-11-20T12:02:41.455Z,100237.41
2022-11-20T12:05:20.937Z,100243.81
2022-11-20T12:07:55.189Z,100240.75
2022-11-20T12:10:32.604Z,100233.94
2022-11-20T12:13:10.668Z,100232.06
2022-11-20T12:15:46.893Z,100230.88
2022-11-20T12:18:20.638Z,100233.75
2022-11-20T12:20:59.811Z,100226.47
2022-11-20T12:23:36.206Z,100222.63
2022-11-20T12:26:17.167Z,100225.31
2022-11-20T12:28:59.297Z,100207.88
2022-11-20T12:31:45.667Z,100207.16
2022-11-20T12:34:43.034Z,100217.91
2022-11-20T12:37:27.637Z,100209.75
2022-11-20T12:39:59.858Z,100217.22
2022-11-20T12:43:06.072Z,100199.19
2022-11-20T12:45:52.765Z,100196.31
2022-11-20T12:49:01.087Z,100201.88
2022-11-20T12:51:52.126Z,100187.53
2022-11-20T12:54:48.507Z,100194.06
2022-11-20T12:57:25.907Z,100191.75
2022-11-20T13:00:12.036Z,100174.34
2022-11-20T13:02:59.505Z,100187.81
2022-11-20T13:05:39.473Z,100195.84
2022-11-20T13:08:19.202Z,100196.50
2022-11-20T13:10:54.390Z,100195.41
2022-11-20T13:13:31.518Z,100191.63
2022-11-20T13:16:07.073Z,100193.50
2022-11-20T13:18:40.794Z,100182.75
2022-11-20T13:21:21.709Z,100181.25
2022-11-20T13:23:52.523Z,100175.44
2022-11-20T13:26:24.402Z,100178.72
2022-11-20T13:29:05.933Z,100172.81
2022-11-20T13:31:37.490Z,100168.13
2022-11-20T13:34:09.602Z,100167.13
2022-11-20T13:36:39.151Z,100160.66
2022-11-20T13:39:11.585Z,100158.03
2022-11-20T13:41:41.786Z,100156.66
2022-11-20T13:44:25.936Z,100148.22
2022-11-20T13:46:55.531Z,100155.03
2022-11-20T13:49:29.282Z,100147.16
2022-11-20T13:52:09.218Z,100140.75
2022-11-20T13:55:00.373Z,100134.72
2022-11-20T13:57:48.434Z,100119.09
2022-11-20T14:00:20.225Z,100104.94
2022-11-20T14:03:02.533Z,100125.56
2022-11-20T14:05:37.503Z,100110.31
2022-11-20T14:08:09.012Z,100111.41
2022-11-20T14:10:40.745Z,100108.47
2022-11-20T14:13:18.645Z,100101.94
2022-11-20T14:15:48.164Z,100098.91
2022-11-20T14:18:22.965Z,100108.22
2022-11-20T14:20:52.321Z,100113.31
2022-11-20T14:23:29.919Z,100101.41
2022-11-20T14:26:01.186Z,100093.28
2022-11-20T14:28:32.489Z,100089.03
2022-11-20T14:31:02.057Z,100096.56
2022-11-20T14:33:40.441Z,100082.41
2022-11-20T14:36:20.949Z,100082.50
2022-11-20T14:38:50.602Z,100068.09
2022-11-20T14:41:23.787Z,100070.25
2022-11-20T14:43:58.674Z,100064.75
2022-11-20T14:46:28.569Z,100062.72
2022-11-20T14:48:59.659Z,100058.50
2022-11-20T14:51:33.371Z,100047.28
2022-11-20T14:54:13.419Z,100054.19
2022-11-20T14:56:44.146Z,100046.44
2022-11-20T14:59:13.472Z,100053.81
2022-11-20T15:01:57.701Z,100056.66
2022-11-20T15:04:27.544Z,100060.81
2022-11-20T15:06:59.173Z,100051.88
2022-11-20T15:09:28.613Z,100055.03
2022-11-20T15:12:01.868Z,100042.38
2022-11-20T15:14:33.782Z,100044.28
2022-11-20T15:17:03.260Z,100051.88
2022-11-20T15:19:32.796Z,100039.94
2022-11-20T15:22:02.192Z,100033.41
2022-11-20T15:24:31.710Z,100031.81
2022-11-20T15:27:02.474Z,100036.19
2022-11-20T15:29:31.752Z,100031.44
2022-11-20T15:32:01.098Z,100032.41
2022-11-20T15:34:30.935Z,100033.28
2022-11-20T15:37:00.272Z,100021.69
2022-11-20T15:39:29.553Z,100018.25
2022-11-20T15:41:59.029Z,100011.25
2022-11-20T15:44:29.779Z,100017.81
2022-11-20T15:46:59.159Z,100023.53
2022-11-20T15:49:28.676Z,100025.41
2022-11-20T15:51:58.053Z,100025.06
2022-11-20T15:54:27.536Z,100031.59
2022-11-20T15:56:57.081Z,100023.38
2022-11-20T15:59:26.919Z,100024.38
2022-11-20T16:01:57.883Z,100019.81
2022-11-20T16:04:27.322Z,100010.38
2022-11-20T16:06:56.893Z,100005.56
2022-11-20T16:09:26.167Z,100016.34
2022-11-20T16:11:55.578Z,100012.25
2022-11-20T16:14:42.520Z,100006.50
2022-11-20T16:17:13.472Z,100003.09
2022-11-20T16:19:42.789Z,99996.59
2022-11-20T16:22:13.411Z,99992.69
2022-11-20T16:24:42.664Z,99985.53
2022-11-20T16:27:12.060Z,99976.84
2022-11-20T16:29:41.552Z,99964.34
2022-11-20T16:32:14.010Z,99968.78
2022-11-20T16:34:43.377Z,99962.88
2022-11-20T16:37:12.611Z,99960.72
2022-11-20T16:39:41.987Z,99958.94
2022-11-20T16:42:11.400Z,99959.28
2022-11-20T16:44:41.147Z,99952.88
2022-11-20T16:47:10.415Z,99936.13
2022-11-20T16:49:41.074Z,99943.34
2022-11-20T16:52:10.527Z,99938.66
2022-11-20T16:54:39.816Z,99916.91
2022-11-20T16:57:09.118Z,99933.75
2022-11-20T16:59:38.421Z,99921.91
2022-11-20T17:02:08.122Z,99935.28
2022-11-20T17:04:37.720Z,99932.19
2022-11-20T17:07:08.672Z,99923.94
2022-11-20T17:09:38.172Z,99933.94
2022-11-20T17:12:07.905Z,99927.22
2022-11-20T17:14:37.225Z,99920.56
2022-11-20T17:17:06.761Z,99917.28
2022-11-20T17:19:36.032Z,99914.09
2022-11-20T17:22:05.505Z,99902.59
2022-11-20T17:24:36.259Z,99906.38
2022-11-20T17:27:05.822Z,99886.63
2022-11-20T17:29:40.651Z,99896.69
2022-11-20T17:32:11.441Z,99893.81
2022-11-20T17:34:40.723Z,99886.56
2022-11-20T17:37:09.959Z,99884.72
2022-11-20T17:39:41.419Z,99891.22
2022-11-20T17:42:29.923Z,99886.56
2022-11-20T17:44:59.996Z,99884.00
2022-11-20T17:47:29.335Z,99881.78
2022-11-20T17:49:58.741Z,99883.75
2022-11-20T17:52:28.430Z,99865.16
2022-11-20T17:55:01.101Z,99873.22
2022-11-20T17:57:48.326Z,99863.03
2022-11-20T18:00:18.683Z,99866.63
2022-11-20T18:02:48.200Z,99866.09
2022-11-20T18:05:17.675Z,99862.78
2022-11-20T18:07:47.261Z,99865.72
2022-11-20T18:10:18.040Z,99868.94
2022-11-20T18:12:47.522Z,99863.69
2022-11-20T18:15:17.420Z,99865.69
2022-11-20T18:17:46.728Z,99856.25
2022-11-20T18:20:36.551Z,99850.28
2022-11-20T18:23:05.526Z,99825.72
2022-11-20T18:25:36.229Z,99837.09
2022-11-20T18:28:06.333Z,99829.19
2022-11-20T18:30:37.563Z,99832.34
2022-11-20T18:33:06.812Z,99826.75
2022-11-20T18:35:36.184Z,99829.78
2022-11-20T18:38:05.427Z,99834.50
2022-11-20T18:40:38.187Z,99832.00
2022-11-20T18:43:24.810Z,99837.44
2022-11-20T18:46:03.554Z,99834.84
2022-11-20T18:48:33.333Z,99830.66
2022-11-20T18:51:07.187Z,99828.03
2022-11-20T18:53:37.794Z,99819.59
2022-11-20T18:56:10.389Z,99817.56
2022-11-20T18:58:41.138Z,99816.00
2022-11-20T19:01:10.628Z,99811.47
2022-11-20T19:03:39.932Z,99813.97
2022-11-20T19:06:19.528Z,99792.78
2022-11-20T19:09:01.628Z,99791.63
2022-11-20T19:11:48.362Z,99794.00
2022-11-20T19:14:31.361Z,99794.56
2022-11-20T19:17:16.081Z,99794.13
2022-11-20T19:19:49.862Z,99782.44
2022-11-20T19:22:19.477Z,99783.06
2022-11-20T19:24:49.062Z,99785.88
2022-11-20T19:27:19.886Z,99783.19
2022-11-20T19:29:49.589Z,99776.72
2022-11-20T19:32:18.993Z,99768.69
2022-11-20T19:34:48.761Z,99765.75
2022-11-20T19:37:18.277Z,99763.41
2022-11-20T19:39:48.296Z,99751.38
2022-11-20T19:42:19.416Z,99757.84
2022-11-20T19:44:49.173Z,99752.22
2022-11-20T19:47:19.717Z,99740.56
2022-11-20T19:49:49.102Z,99743.63
2022-11-20T19:52:18.424Z,99738.97
2022-11-20T19:54:47.786Z,99725.13
2022-11-20T19:57:17.089Z,99723.44
2022-11-20T19:59:47.861Z,99722.59
2022-11-20T20:02:17.342Z,99715.28
2022-11-20T20:04:47.049Z,99710.69
2022-11-20T20:07:16.431Z,99702.44
2022-11-20T20:09:45.698Z,99704.31
2022-11-20T20:12:14.964Z,99697.09
2022-11-20T20:14:44.310Z,99701.41
2022-11-20T20:17:15.098Z,99705.50
2022-11-20T20:19:44.388Z,99696.81
2022-11-20T20:22:13.675Z,99688.53
2022-11-20T20:24:43.091Z,99685.00
2022-11-20T20:27:12.442Z,99680.50
2022-11-20T20:29:41.769Z,99674.22
2022-11-20T20:32:11.400Z,99676.22
2022-11-20T20:34:42.493Z,99666.22
2022-11-20T20:37:12.036Z,99663.19
2022-11-20T20:39:41.339Z,99663.56
2022-11-20T20:42:11.543Z,99662.56
2022-11-20T20:44:58.457Z,99660.34
2022-11-20T20:47:33.400Z,99650.91
2022-11-20T20:50:05.064Z,99654.06
2022-11-20T20:52:34.739Z,99650.66
2022-11-20T20:55:05.442Z,99644.16
2022-11-20T20:57:36.946Z,99645.06
2022-11-20T21:00:07.973Z,99647.78
2022-11-20T21:02:37.344Z,99640.09
2022-11-20T21:05:12.207Z,99633.28
2022-11-20T21:07:56.446Z,99628.59
2022-11-20T21:10:26.291Z,99625.53
2022-11-20T21:12:55.645Z,99622.88
2022-11-20T21:15:25.021Z,99617.00
2022-11-20T21:17:54.344Z,99609.31
2022-11-20T21:20:42.389Z,99602.72
2022-11-20T21:23:13.262Z,99601.09
2022-11-20T21:25:44.261Z,99602.28
2022-11-20T21:28:18.217Z,99602.78
2022-11-20T21:30:48.761Z,99606.59
2022-11-20T21:33:21.323Z,99594.66
2022-11-20T21:35:53.580Z,99596.94
2022-11-20T21:38:22.852Z,99586.53
2022-11-20T21:40:52.181Z,99574.28
2022-11-20T21:43:21.438Z,99570.13
2022-11-20T21:45:51.742Z,99579.28
2022-11-20T21:48:21.103Z,99573.19
2022-11-20T21:50:50.486Z,99571.13
2022-11-20T21:53:21.290Z,99568.75
2022-11-20T21:55:55.122Z,99575.97
2022-11-20T21:58:24.575Z,99565.69
2022-11-20T22:00:54.022Z,99567.69
2022-11-20T22:03:23.514Z,99571.13
2022-11-20T22:05:57.594Z,99559.84
2022-11-20T22:08:28.491Z,99566.63
2022-11-20T22:10:58.611Z,99564.06
2022-11-20T22:13:46.802Z,99555.97
2022-11-20T22:16:16.512Z,99556.25
2022-11-20T22:18:46.392Z,99547.75
2022-11-20T22:21:16.941Z,99547.75
2022-11-20T22:23:47.846Z,99558.94
2022-11-20T22:26:19.525Z,99557.09
2022-11-20T22:28:49.940Z,99548.97
2022-11-20T22:31:20.210Z,99565.75
2022-11-20T22:33:49.890Z,99564.72
2022-11-20T22:36:20.942Z,99561.84
2022-11-20T22:38:52.058Z,99571.75
2022-11-20T22:41:22.884Z,99570.50
2022-11-20T22:43:55.679Z,99577.47
2022-11-20T22:46:26.370Z,99579.19
2022-11-20T22:48:57.121Z,99569.31
2022-11-20T22:51:28.362Z,99574.69
2022-11-20T22:53:59.143Z,99574.38
2022-11-20T22:56:28.649Z,99576.56
2022-11-20T22:58:58.103Z,99585.97
2022-11-20T23:01:28.914Z,99584.53
2022-11-20T23:03:59.862Z,99592.41
2022-11-20T23:06:29.840Z,99594.91
2022-11-20T23:09:00.547Z,99603.16
2022-11-20T23:11:31.393Z,99608.50
2022-11-20T23:14:02.224Z,99607.25
2022-11-20T23:16:33.750Z,99608.44
2022-11-20T23:19:06.066Z,99610.06
2022-11-20T23:21:35.913Z,99602.47
2022-11-20T23:24:07.873Z,99615.03
2022-11-20T23:26:39.544Z,99610.34
2022-11-20T23:29:09.378Z,99603.19
2022-11-20T23:31:38.713Z,99606.03
2022-11-20T23:34:07.988Z,99616.06
2022-11-20T23:36:37.201Z,99609.03
2022-11-20T23:39:08.846Z,99619.81
2022-11-20T23:41:38.092Z,99622.78
2022-11-20T23:44:08.682Z,99618.25
2022-11-20T23:46:37.931Z,99615.88
2022-11-20T23:49:08.158Z,99606.59
2022-11-20T23:51:37.397Z,99607.13
2022-11-20T23:54:08.299Z,99611.88
2022-11-20T23:56:37.574Z,99613.03
2022-11-20T23:59:08.179Z,99627.88
